Forside
METAR-TAF:

METAR-TAF

Lufthavne :

Vamdrup

Kolding, Danmark

Breddekreds: 55-26N, længdekreds: 009-20E, højde: 44 m

Aktuelle vejr

Denne rapport blev lavet for 21 minutter siden, kl. 01:50 UTC
Vind 14 kt fra vestnordvest
Temperatur 10°C
Fugtighed 82%
Tryk 1023 hPa

METAR: EKVD 250150Z AUTO 30014KT //// ///////// 10/07 Q1023

Tid: 04:11 (02:11 UTC)

Vejrudsigter

Denne rapport blev lavet for 17 timer og 13 minutter siden, kl. 08:58 UTC
Foreløbig gælder fra 24 på 09 UTC til 24 på 15 UTC
Vind 15 kt fra vest
Sigt 10 km eller mere
Brudte skyer i en højde af 2000 ft
Midlertidig
fra 24 på 09 UTC til 24 på 15 UTC
Vind 18 kt fra vest med vindstød på up til 28 kt
Brudte skyer i en højde af 1500 ft
Spredte skyer i en højde af 2000 ft, Cumulonimbus.
regnbyger

TAF: EKVD 240858Z 2409/2415 26015KT 9999 BKN020 TEMPO 2409/2415 26018G28KT SHRA BKN015 SCT020CB

Vejrobservationer og prognoser fra mere end 4000 lufthavne (METAR og TAF).

De gule og røde prikker repræsenterer de meteorologiske stationer.

Flyt musen over at se navnet på stationen.

Så klik over at se vejr observationer og prognoser.

At skifte det kort: Klik på de grønne knapper med et sort kors for at zoome ind; på den grønne knap med en bindestreg for at zoome ud; eller på de grønne pile for tilstødende kort.


METAR-TAF: